createdAt,value
2023-03-01T00:03:19.193Z,28.18
2023-03-01T00:04:19.511Z,33.76
2023-03-01T00:05:20.100Z,33.20
2023-03-01T00:06:19.041Z,32.94
2023-03-01T00:07:20.543Z,34.77
2023-03-01T00:08:21.368Z,33.58
2023-03-01T00:09:20.539Z,32.64
2023-03-01T00:19:59.083Z,33.19
2023-03-01T00:20:58.975Z,31.41
2023-03-01T00:21:58.674Z,31.36
2023-03-01T00:22:58.646Z,31.51
2023-03-01T00:23:58.622Z,29.98
2023-03-01T00:24:58.613Z,32.05
2023-03-01T00:25:58.711Z,29.74
2023-03-01T00:26:58.597Z,32.52
2023-03-01T00:27:58.610Z,31.47
2023-03-01T00:28:58.712Z,32.79
2023-03-01T00:29:58.540Z,32.12
2023-03-01T00:30:58.673Z,30.33
2023-03-01T00:31:58.691Z,29.54
2023-03-01T00:32:58.525Z,33.28
2023-03-01T00:33:58.633Z,32.29
2023-03-01T00:34:58.557Z,33.72
2023-03-01T00:35:58.583Z,32.74
2023-03-01T00:36:58.608Z,30.81
2023-03-01T01:44:21.541Z,39.24
2023-03-01T01:46:21.227Z,35.96
2023-03-01T01:47:21.323Z,36.99
2023-03-01T01:48:21.106Z,34.42
2023-03-01T01:49:21.098Z,34.74
2023-03-01T01:57:23.468Z,38.92
2023-03-01T02:09:23.275Z,33.54
2023-03-01T02:10:23.537Z,35.18
2023-03-01T02:11:23.353Z,34.65
2023-03-01T02:12:23.138Z,32.59
2023-03-01T02:13:23.122Z,34.00
2023-03-01T02:14:23.153Z,34.32
2023-03-01T02:15:23.116Z,34.38
2023-03-01T02:16:23.270Z,35.41
2023-03-01T02:17:23.096Z,31.44
2023-03-01T02:23:19.619Z,35.46
2023-03-01T02:24:23.010Z,34.18
2023-03-01T02:25:23.174Z,33.19
2023-03-01T02:26:22.883Z,33.17
2023-03-01T02:27:22.970Z,35.11
2023-03-01T02:28:22.865Z,32.51
2023-03-01T02:45:57.264Z,15.93
2023-03-01T02:48:16.597Z,27.96
2023-03-01T02:49:16.871Z,31.10
2023-03-01T02:53:57.669Z,25.73
2023-03-01T02:54:58.610Z,29.16
2023-03-01T02:57:17.114Z,26.04
2023-03-01T02:58:16.906Z,28.97
2023-03-01T02:59:17.052Z,27.57
2023-03-01T03:00:16.764Z,25.36
2023-03-01T03:01:16.898Z,28.98
2023-03-01T03:02:16.781Z,28.65
2023-03-01T03:03:16.777Z,26.99
2023-03-01T03:04:16.765Z,24.36
2023-03-01T03:05:16.786Z,24.54
2023-03-01T03:06:16.965Z,24.11
2023-03-01T03:07:16.774Z,24.76
2023-03-01T03:08:16.734Z,25.33
2023-03-01T03:09:16.910Z,25.74
2023-03-01T03:10:16.695Z,24.67
2023-03-01T03:11:16.748Z,24.81
2023-03-01T03:12:16.694Z,26.04
2023-03-01T03:13:16.747Z,24.10
2023-03-01T03:14:16.731Z,26.63
2023-03-01T03:15:16.729Z,25.41
2023-03-01T03:16:16.717Z,27.10
2023-03-01T03:17:16.674Z,25.31
2023-03-01T03:18:16.671Z,25.36
2023-03-01T03:19:16.647Z,24.63
2023-03-01T03:20:16.679Z,26.84
2023-03-01T03:23:59.020Z,27.48
2023-03-01T03:24:57.020Z,30.76
2023-03-01T03:25:56.637Z,26.24
2023-03-01T03:26:56.612Z,25.03
2023-03-01T03:27:56.589Z,24.73
2023-03-01T03:28:56.649Z,24.52
2023-03-01T03:29:56.556Z,24.29
2023-03-01T03:30:56.562Z,26.39
2023-03-01T03:31:56.645Z,25.57
2023-03-01T03:32:56.575Z,24.78
2023-03-01T03:33:56.527Z,24.67
2023-03-01T03:34:56.536Z,26.16
2023-03-01T04:45:30.146Z,19.34
2023-03-01T04:46:30.360Z,35.33
2023-03-01T04:47:30.261Z,33.19
2023-03-01T04:48:29.927Z,32.88
2023-03-01T04:49:29.887Z,30.54
2023-03-01T04:50:29.870Z,32.21
2023-03-01T04:51:29.929Z,32.35
2023-03-01T04:52:29.872Z,31.90
2023-03-01T04:53:30.064Z,31.61
2023-03-01T04:54:29.907Z,31.32
2023-03-01T04:55:29.841Z,30.29
2023-03-01T04:56:30.098Z,33.19
2023-03-01T04:57:29.813Z,30.38
2023-03-01T04:58:29.845Z,32.11
2023-03-01T04:59:29.827Z,31.70
2023-03-01T05:00:29.827Z,30.35
2023-03-01T05:01:29.833Z,30.32
2023-03-01T05:02:29.873Z,33.77
2023-03-01T05:03:29.803Z,31.22
2023-03-01T05:04:29.863Z,31.46
2023-03-01T05:05:29.822Z,31.45
2023-03-01T05:06:30.126Z,29.27
2023-03-01T05:07:29.827Z,30.27
2023-03-01T05:08:29.867Z,26.15
2023-03-01T05:09:29.912Z,29.37
2023-03-01T05:10:30.003Z,26.37
2023-03-01T05:11:30.011Z,27.99
2023-03-01T05:12:30.030Z,26.22
2023-03-01T05:13:30.043Z,25.91
2023-03-01T05:14:30.103Z,30.62
2023-03-01T05:15:30.198Z,26.48
2023-03-01T05:16:30.426Z,27.22
2023-03-01T05:17:30.170Z,26.81
2023-03-01T05:18:30.217Z,27.32
2023-03-01T05:19:30.224Z,25.66
2023-03-01T05:20:30.190Z,26.38
2023-03-01T05:21:30.236Z,27.70
2023-03-01T05:22:30.312Z,26.64
2023-03-01T05:23:30.308Z,27.43
2023-03-01T05:24:30.336Z,26.11
2023-03-01T05:25:30.368Z,24.02
2023-03-01T05:26:30.366Z,26.50
2023-03-01T05:27:30.447Z,27.06
2023-03-01T05:28:30.426Z,25.63
2023-03-01T05:29:30.479Z,24.89
2023-03-01T05:30:30.480Z,24.08
2023-03-01T05:31:30.584Z,24.09
2023-03-01T05:33:30.630Z,27.51
2023-03-01T06:47:30.691Z,19.39
2023-03-01T06:48:31.003Z,19.37
2023-03-01T06:49:30.565Z,18.88
2023-03-01T06:50:30.571Z,18.45
2023-03-01T06:51:31.434Z,18.84
2023-03-01T06:52:30.413Z,18.23
2023-03-01T07:03:50.174Z,19.14
2023-03-01T07:53:15.406Z,22.72
2023-03-01T07:54:15.548Z,23.03
2023-03-01T07:55:15.091Z,22.50
2023-03-01T07:56:30.482Z,21.84
2023-03-01T07:57:14.915Z,22.11
2023-03-01T07:58:15.341Z,22.03
2023-03-01T07:59:14.882Z,22.20
2023-03-01T08:00:14.926Z,22.43
2023-03-01T08:01:15.610Z,23.40
2023-03-01T08:02:14.855Z,24.17
2023-03-01T08:03:14.861Z,27.53
2023-03-01T08:04:14.834Z,26.98
2023-03-01T08:05:14.813Z,27.21
2023-03-01T08:06:14.759Z,25.02
2023-03-01T08:07:14.781Z,24.79
2023-03-01T08:08:14.831Z,24.67
2023-03-01T08:09:14.740Z,24.32
2023-03-01T08:10:14.769Z,24.12
2023-03-01T08:11:14.761Z,24.02
2023-03-01T08:12:14.715Z,21.25
2023-03-01T08:13:15.196Z,22.89
2023-03-01T08:14:14.802Z,24.79
2023-03-01T08:15:14.724Z,24.52
2023-03-01T08:16:14.793Z,25.11
2023-03-01T08:17:14.760Z,24.82
2023-03-01T08:18:14.830Z,25.39
2023-03-01T08:19:14.798Z,20.60
2023-03-01T08:20:14.820Z,20.36
2023-03-01T08:21:14.830Z,22.85
2023-03-01T08:22:15.028Z,21.03
2023-03-01T08:24:15.012Z,19.86
2023-03-01T08:25:14.951Z,18.99
2023-03-01T08:26:14.955Z,18.58
2023-03-01T08:27:14.999Z,21.60
2023-03-01T08:29:15.137Z,21.31
2023-03-01T08:30:15.160Z,21.06
2023-03-01T08:31:15.329Z,20.22
2023-03-01T08:32:15.642Z,20.05
2023-03-01T08:34:15.320Z,19.93
2023-03-01T08:35:15.700Z,18.64
2023-03-01T08:36:15.448Z,18.60
2023-03-01T08:37:15.438Z,18.04
2023-03-01T08:58:31.187Z,22.67
2023-03-01T09:04:16.172Z,20.27
2023-03-01T09:29:29.492Z,18.00
2023-03-01T09:42:55.045Z,28.08
2023-03-01T09:43:50.844Z,19.98
2023-03-01T09:47:31.091Z,20.35
2023-03-01T09:49:50.047Z,12.89
2023-03-01T09:51:05.023Z,16.63
2023-03-01T09:51:49.656Z,17.13
2023-03-01T09:52:49.799Z,15.22
2023-03-01T09:53:49.605Z,12.88
2023-03-01T09:54:49.645Z,13.64
2023-03-01T09:55:49.586Z,12.17
2023-03-01T09:56:49.633Z,19.09
2023-03-01T09:58:49.797Z,21.41
2023-03-01T09:59:50.218Z,19.32
2023-03-01T10:00:50.036Z,19.90
2023-03-01T10:01:50.154Z,19.44
2023-03-01T10:02:50.582Z,19.48
2023-03-01T10:03:51.772Z,20.14
2023-03-01T10:04:50.127Z,19.56
2023-03-01T10:06:04.966Z,18.97
2023-03-01T10:06:49.624Z,19.19
2023-03-01T10:14:49.473Z,21.33
2023-03-01T10:15:49.570Z,21.48
2023-03-01T10:16:49.479Z,19.34
2023-03-01T10:17:49.497Z,19.38
2023-03-01T10:18:49.456Z,20.17
2023-03-01T10:19:49.459Z,19.91
2023-03-01T10:20:49.477Z,18.39
2023-03-01T10:25:49.453Z,20.65
2023-03-01T11:03:08.385Z,19.96
2023-03-01T11:15:08.407Z,20.30
2023-03-01T11:21:28.264Z,20.23
2023-03-01T11:22:27.903Z,19.98
2023-03-01T11:23:29.008Z,20.22
2023-03-01T11:25:48.010Z,19.12
2023-03-01T11:26:47.491Z,20.77
2023-03-01T11:27:47.474Z,19.67
2023-03-01T11:28:47.881Z,20.37
2023-03-01T11:29:49.026Z,20.54
2023-03-01T11:30:53.088Z,19.04
2023-03-01T11:31:57.285Z,20.50
2023-03-01T11:32:48.415Z,20.56
2023-03-01T11:33:47.327Z,20.37
2023-03-01T11:34:47.326Z,20.41
2023-03-01T11:39:06.886Z,18.12
2023-03-01T11:41:06.974Z,19.95
2023-03-01T11:42:18.068Z,20.12
2023-03-01T11:49:08.193Z,11.13
2023-03-01T11:50:07.638Z,21.49
2023-03-01T11:51:08.387Z,19.82
2023-03-01T11:53:07.106Z,19.67
2023-03-01T13:23:39.959Z,23.34
2023-03-01T13:33:39.924Z,22.28
2023-03-01T14:13:37.403Z,16.19
2023-03-01T14:22:35.278Z,18.17
2023-03-01T14:23:34.635Z,17.79
2023-03-01T14:24:34.688Z,18.57
2023-03-01T14:25:34.658Z,17.41
2023-03-01T14:26:34.614Z,19.40
2023-03-01T14:27:34.699Z,16.91
2023-03-01T14:28:34.667Z,17.83
2023-03-01T14:29:34.624Z,18.24
2023-03-01T14:30:34.624Z,18.02
2023-03-01T14:31:40.982Z,18.53
2023-03-01T14:52:34.694Z,19.19
2023-03-01T14:53:45.830Z,18.50
2023-03-01T14:54:35.669Z,20.64
2023-03-01T14:55:34.704Z,20.52
2023-03-01T14:56:34.665Z,19.14
2023-03-01T14:57:34.684Z,18.89
2023-03-01T14:58:34.855Z,19.90
2023-03-01T14:59:34.690Z,19.38
2023-03-01T15:07:34.584Z,19.32
2023-03-01T15:08:34.599Z,19.61
2023-03-01T15:09:34.810Z,17.82
2023-03-01T15:10:34.724Z,18.24
2023-03-01T15:11:35.191Z,19.19
2023-03-01T15:12:34.860Z,20.23
2023-03-01T15:13:34.839Z,18.04
2023-03-01T15:14:34.952Z,17.79
2023-03-01T16:01:54.563Z,20.38
2023-03-01T16:29:54.379Z,24.54
2023-03-01T16:30:54.407Z,20.95
2023-03-01T16:31:54.502Z,23.91
2023-03-01T16:32:54.513Z,22.76
2023-03-01T16:33:54.537Z,23.23
2023-03-01T16:34:54.546Z,23.09
2023-03-01T16:35:54.596Z,23.21
2023-03-01T17:48:13.947Z,34.11
2023-03-01T17:49:14.107Z,35.54
2023-03-01T17:50:13.907Z,32.30
2023-03-01T18:14:49.839Z,33.59
2023-03-01T19:01:13.145Z,34.14
2023-03-01T19:02:13.186Z,35.98
2023-03-01T19:03:12.931Z,36.53
2023-03-01T19:37:32.866Z,36.22
2023-03-01T19:38:32.875Z,35.62
2023-03-01T19:39:32.852Z,38.17
2023-03-01T19:40:32.832Z,36.47
2023-03-01T19:41:32.859Z,38.39
2023-03-01T19:42:32.849Z,36.14
2023-03-01T19:48:23.791Z,26.71
2023-03-01T19:49:23.594Z,39.31
2023-03-01T19:50:23.390Z,36.47
2023-03-01T20:02:57.432Z,12.14
2023-03-01T20:03:57.355Z,39.04
2023-03-01T20:09:57.107Z,33.68
2023-03-01T20:12:16.721Z,35.98
2023-03-01T20:13:16.668Z,37.95
2023-03-01T20:14:16.604Z,38.56
2023-03-01T20:15:16.580Z,36.21
2023-03-01T20:16:16.611Z,39.20
2023-03-01T20:17:16.565Z,38.43
2023-03-01T20:18:16.572Z,36.86
2023-03-01T20:19:16.543Z,37.05
2023-03-01T20:20:16.554Z,39.01
2023-03-01T20:21:24.794Z,41.64
2023-03-01T20:22:17.906Z,40.99
2023-03-01T20:23:16.548Z,39.53
2023-03-01T20:24:16.535Z,38.69
2023-03-01T20:25:16.566Z,39.38
2023-03-01T20:26:16.595Z,40.44
2023-03-01T20:27:16.507Z,37.41
2023-03-01T20:28:16.491Z,37.59
2023-03-01T20:29:16.485Z,36.91
2023-03-01T20:30:16.493Z,39.01
2023-03-01T20:31:16.518Z,39.97
2023-03-01T20:32:16.579Z,38.36
2023-03-01T20:33:16.476Z,37.56
2023-03-01T20:34:16.478Z,40.18
2023-03-01T20:35:16.433Z,38.34
2023-03-01T20:36:16.467Z,39.01
2023-03-01T20:37:16.446Z,44.05
2023-03-01T20:38:16.481Z,40.86
2023-03-01T20:39:16.581Z,42.25
2023-03-01T20:40:16.730Z,44.58
2023-03-01T20:41:16.602Z,45.08
2023-03-01T20:42:16.625Z,41.91
2023-03-01T20:43:16.602Z,39.60
2023-03-01T20:44:16.683Z,39.09
2023-03-01T20:45:16.641Z,37.01
2023-03-01T20:46:16.745Z,39.92
2023-03-01T20:47:16.732Z,38.94
2023-03-01T20:48:16.741Z,39.15
2023-03-01T20:49:16.803Z,36.77
2023-03-01T20:50:16.865Z,39.25
2023-03-01T20:51:16.882Z,37.93
2023-03-01T20:52:16.995Z,39.35
2023-03-01T20:53:17.018Z,39.23
2023-03-01T20:54:17.003Z,39.34
2023-03-01T20:55:17.077Z,40.64
2023-03-01T20:56:17.044Z,40.56
2023-03-01T20:57:17.066Z,39.89
2023-03-01T20:58:17.112Z,38.78
2023-03-01T20:59:17.129Z,35.96
2023-03-01T21:00:17.150Z,38.68
2023-03-01T21:01:17.240Z,37.39
2023-03-01T21:02:17.217Z,37.10
2023-03-01T21:03:17.240Z,36.08
2023-03-01T21:04:17.365Z,39.82
2023-03-01T21:05:17.246Z,42.95
2023-03-01T21:06:17.302Z,39.86
2023-03-01T21:07:17.262Z,40.80
2023-03-01T21:08:17.302Z,38.89
2023-03-01T21:09:17.327Z,42.14
2023-03-01T21:10:17.438Z,40.10
2023-03-01T21:11:17.510Z,37.10
2023-03-01T21:12:17.443Z,40.13
2023-03-01T21:13:17.384Z,39.50
2023-03-01T21:14:17.428Z,41.50
2023-03-01T21:15:28.330Z,41.02
2023-03-01T21:16:18.534Z,38.00
2023-03-01T21:17:17.417Z,40.32
2023-03-01T21:18:17.424Z,40.86
2023-03-01T21:19:17.438Z,41.78
2023-03-01T21:20:17.402Z,39.94
2023-03-01T21:21:17.402Z,40.99
2023-03-01T21:22:17.420Z,41.25
2023-03-01T21:23:17.379Z,39.34
2023-03-01T21:24:17.464Z,39.64
2023-03-01T21:25:17.414Z,41.59
2023-03-01T21:26:17.398Z,40.32
2023-03-01T21:27:17.404Z,38.58
2023-03-01T21:28:17.504Z,41.55
2023-03-01T21:29:17.556Z,42.14
2023-03-01T21:30:17.635Z,38.91
2023-03-01T21:31:17.715Z,42.39
2023-03-01T21:32:17.878Z,40.22
2023-03-01T21:33:17.777Z,41.99
2023-03-01T21:34:17.877Z,40.23
2023-03-01T21:35:17.958Z,40.10
2023-03-01T21:36:17.928Z,39.92
2023-03-01T21:37:17.930Z,39.56
2023-03-01T21:38:17.935Z,39.63
2023-03-01T21:39:18.022Z,39.86
2023-03-01T21:40:18.050Z,39.23
2023-03-01T21:41:18.033Z,40.12
2023-03-01T21:42:18.074Z,37.97
2023-03-01T21:43:18.112Z,38.18
2023-03-01T21:44:18.295Z,38.20
2023-03-01T21:45:18.179Z,39.93
2023-03-01T21:46:18.204Z,40.56
2023-03-01T21:47:18.284Z,39.92
2023-03-01T21:48:18.264Z,42.27
2023-03-01T21:49:18.318Z,36.88
2023-03-01T21:50:18.325Z,37.93
2023-03-01T21:51:18.424Z,39.22
2023-03-01T21:52:18.438Z,36.95
2023-03-01T21:53:18.470Z,39.77
2023-03-01T21:54:18.532Z,36.94
2023-03-01T21:55:18.613Z,35.37
2023-03-01T21:56:18.677Z,36.13
2023-03-01T21:57:18.639Z,37.18
2023-03-01T21:58:18.668Z,37.44
2023-03-01T21:59:18.766Z,38.60
2023-03-01T22:00:18.770Z,37.38
2023-03-01T22:01:18.919Z,37.31
2023-03-01T22:02:18.858Z,35.54
2023-03-01T22:03:18.918Z,38.30
2023-03-01T22:04:18.915Z,36.53
2023-03-01T22:05:18.979Z,36.96
2023-03-01T22:06:30.011Z,35.62
2023-03-01T22:07:20.033Z,35.49
2023-03-01T22:08:18.998Z,37.22
2023-03-01T22:09:19.048Z,36.26
2023-03-01T22:10:18.992Z,35.46
2023-03-01T22:11:19.009Z,35.99
2023-03-01T22:12:18.975Z,36.43
2023-03-01T22:14:39.015Z,35.47
2023-03-01T22:15:39.031Z,35.99
2023-03-01T22:16:38.859Z,33.13
2023-03-01T22:17:38.739Z,33.89
2023-03-01T22:18:38.813Z,34.46
2023-03-01T22:19:38.740Z,33.80
2023-03-01T22:20:38.764Z,35.77
2023-03-01T22:21:38.698Z,34.96
2023-03-01T22:23:59.146Z,33.01
2023-03-01T22:24:58.947Z,35.94
2023-03-01T22:25:59.150Z,34.51
2023-03-01T22:26:58.915Z,36.50
2023-03-01T22:27:58.875Z,34.06
2023-03-01T22:28:58.912Z,35.19
2023-03-01T22:29:58.841Z,34.33
2023-03-01T22:30:58.849Z,37.70
2023-03-01T22:31:58.959Z,37.05
2023-03-01T22:32:58.835Z,37.14
2023-03-01T22:33:58.830Z,36.83
2023-03-01T22:34:58.851Z,37.34
2023-03-01T22:35:58.889Z,35.82
2023-03-01T22:36:58.838Z,35.90
2023-03-01T22:37:58.809Z,35.85
2023-03-01T22:38:58.795Z,36.52
2023-03-01T22:39:58.753Z,33.92
2023-03-01T22:40:58.784Z,35.35
2023-03-01T22:41:58.764Z,38.54
2023-03-01T22:42:58.815Z,38.66
2023-03-01T22:43:58.787Z,37.60
2023-03-01T22:44:58.796Z,37.97
2023-03-01T22:45:58.770Z,36.20
2023-03-01T22:46:58.793Z,38.12
2023-03-01T22:47:58.734Z,36.86
2023-03-01T22:48:58.729Z,35.96
2023-03-01T22:49:58.732Z,35.41
2023-03-01T22:50:58.748Z,37.15
2023-03-01T22:52:00.371Z,38.15
2023-03-01T22:52:58.699Z,37.26
2023-03-01T22:53:58.766Z,38.10
2023-03-01T22:54:58.680Z,35.63
2023-03-01T22:55:58.709Z,37.12
2023-03-01T22:56:58.740Z,38.22
2023-03-01T22:57:58.818Z,39.93
2023-03-01T22:58:58.790Z,38.41
2023-03-01T22:59:58.825Z,38.12
2023-03-01T23:00:58.854Z,39.71
2023-03-01T23:01:58.892Z,39.85
2023-03-01T23:02:58.965Z,36.60
2023-03-01T23:03:58.982Z,38.41
2023-03-01T23:04:59.011Z,38.76
2023-03-01T23:05:59.006Z,40.08
2023-03-01T23:06:59.061Z,38.91
2023-03-01T23:07:59.034Z,37.60
2023-03-01T23:08:59.170Z,38.56
2023-03-01T23:09:59.152Z,38.04
2023-03-01T23:10:59.204Z,37.76
2023-03-01T23:11:59.257Z,37.39
2023-03-01T23:13:59.394Z,42.14
2023-03-01T23:39:16.948Z,39.80
